createdAt,value
2022-08-23T00:02:23.929Z,14.79
2022-08-23T00:05:08.422Z,14.72
2022-08-23T00:07:39.255Z,14.65
2022-08-23T00:10:09.212Z,14.67
2022-08-23T00:12:39.008Z,14.55
2022-08-23T00:15:08.943Z,14.54
2022-08-23T00:17:38.226Z,14.60
2022-08-23T00:20:08.202Z,14.60
2022-08-23T00:22:36.356Z,14.41
2022-08-23T00:25:05.026Z,14.33
2022-08-23T00:27:33.577Z,14.29
2022-08-23T00:30:04.087Z,14.36
2022-08-23T00:32:36.069Z,14.23
2022-08-23T00:35:05.712Z,14.44
2022-08-23T00:37:34.671Z,14.38
2022-08-23T00:40:03.152Z,14.09
2022-08-23T00:42:53.198Z,14.29
2022-08-23T00:45:43.387Z,14.25
2022-08-23T00:48:12.706Z,14.26
2022-08-23T00:50:43.748Z,14.23
2022-08-23T00:53:17.816Z,14.38
2022-08-23T00:55:49.007Z,14.18
2022-08-23T00:58:20.767Z,14.21
2022-08-23T01:00:51.759Z,14.24
2022-08-23T01:03:20.710Z,14.21
2022-08-23T01:05:53.516Z,14.15
2022-08-23T01:08:23.731Z,14.12
2022-08-23T01:10:56.327Z,14.06
2022-08-23T01:13:30.187Z,13.98
2022-08-23T01:16:06.665Z,13.91
2022-08-23T01:18:35.416Z,13.69
2022-08-23T01:21:10.593Z,13.62
2022-08-23T01:23:44.155Z,13.51
2022-08-23T01:26:13.252Z,13.46
2022-08-23T01:28:45.719Z,13.54
2022-08-23T01:31:16.048Z,13.62
2022-08-23T01:33:45.550Z,13.57
2022-08-23T01:36:16.739Z,13.35
2022-08-23T01:38:46.415Z,13.28
2022-08-23T01:41:14.712Z,13.21
2022-08-23T01:43:43.381Z,13.08
2022-08-23T01:46:13.291Z,13.09
2022-08-23T01:48:41.719Z,13.08
2022-08-23T01:51:11.147Z,13.08
2022-08-23T01:53:39.471Z,13.15
2022-08-23T01:56:09.591Z,13.04
2022-08-23T01:58:38.628Z,12.95
2022-08-23T02:01:07.759Z,12.84
2022-08-23T02:03:37.419Z,12.86
2022-08-23T02:06:06.424Z,12.80
2022-08-23T02:08:52.619Z,12.71
2022-08-23T02:11:23.959Z,12.51
2022-08-23T02:13:53.849Z,12.59
2022-08-23T02:16:26.301Z,12.65
2022-08-23T02:18:57.401Z,12.54
2022-08-23T02:21:26.494Z,12.42
2022-08-23T02:23:54.761Z,12.60
2022-08-23T02:26:31.156Z,12.57
2022-08-23T02:28:59.761Z,12.44
2022-08-23T02:31:28.101Z,12.42
2022-08-23T02:36:43.583Z,12.33
2022-08-23T02:39:13.232Z,12.16
2022-08-23T02:41:43.311Z,12.07
2022-08-23T02:44:11.912Z,11.71
2022-08-23T02:46:41.392Z,12.07
2022-08-23T02:49:10.133Z,12.13
2022-08-23T02:51:38.583Z,12.11
2022-08-23T02:54:07.483Z,12.07
2022-08-23T02:56:36.323Z,11.98
2022-08-23T02:59:07.062Z,12.07
2022-08-23T03:01:37.900Z,11.89
2022-08-23T03:04:06.927Z,11.76
2022-08-23T03:06:35.563Z,11.76
2022-08-23T03:09:05.177Z,11.83
2022-08-23T03:11:33.594Z,11.68
2022-08-23T03:14:02.343Z,11.75
2022-08-23T03:16:33.554Z,11.61
2022-08-23T03:19:02.524Z,11.74
2022-08-23T03:21:31.473Z,11.71
2022-08-23T03:24:00.916Z,11.63
2022-08-23T03:26:29.322Z,11.62
2022-08-23T03:28:57.691Z,11.69
2022-08-23T03:31:26.132Z,11.68
2022-08-23T03:34:00.113Z,11.54
2022-08-23T03:36:28.470Z,11.51
2022-08-23T03:38:57.000Z,11.50
2022-08-23T03:41:26.252Z,11.57
2022-08-23T03:43:54.582Z,11.62
2022-08-23T03:46:24.633Z,11.64
2022-08-23T03:48:54.030Z,11.53
2022-08-23T03:51:25.670Z,11.48
2022-08-23T03:53:54.253Z,11.38
2022-08-23T03:56:23.990Z,11.46
2022-08-23T03:58:53.192Z,11.48
2022-08-23T04:01:25.274Z,11.40
2022-08-23T04:04:00.308Z,11.20
2022-08-23T04:06:32.142Z,11.26
2022-08-23T04:09:00.970Z,11.37
2022-08-23T04:11:29.322Z,11.22
2022-08-23T04:13:57.568Z,11.22
2022-08-23T04:16:25.863Z,11.21
2022-08-23T04:18:54.161Z,11.20
2022-08-23T04:21:23.814Z,11.18
2022-08-23T04:23:54.203Z,11.29
2022-08-23T04:26:25.188Z,11.26
2022-08-23T04:28:57.083Z,11.19
2022-08-23T04:31:26.792Z,11.21
2022-08-23T04:33:55.782Z,11.26
2022-08-23T04:36:25.370Z,11.28
2022-08-23T04:38:55.012Z,11.20
2022-08-23T04:41:40.802Z,11.23
2022-08-23T04:44:09.619Z,11.05
2022-08-23T04:46:37.904Z,11.26
2022-08-23T04:49:06.122Z,11.37
2022-08-23T04:51:34.422Z,11.41
2022-08-23T04:54:04.404Z,11.48
2022-08-23T04:56:32.850Z,11.58
2022-08-23T04:59:01.215Z,11.59
2022-08-23T05:01:29.523Z,11.70
2022-08-23T05:03:57.871Z,11.72
2022-08-23T05:06:26.323Z,11.75
2022-08-23T05:08:54.651Z,11.88
2022-08-23T05:11:24.384Z,11.96
2022-08-23T05:13:53.124Z,12.00
2022-08-23T05:16:21.464Z,12.09
2022-08-23T05:18:51.121Z,12.22
2022-08-23T05:21:20.870Z,12.24
2022-08-23T05:23:50.895Z,12.36
2022-08-23T05:26:24.365Z,12.47
2022-08-23T05:28:52.802Z,12.63
2022-08-23T05:31:23.692Z,12.81
2022-08-23T05:33:52.790Z,12.87
2022-08-23T05:36:22.363Z,12.96
2022-08-23T05:38:50.954Z,13.02
2022-08-23T05:41:20.937Z,13.06
2022-08-23T05:43:50.784Z,13.18
2022-08-23T05:46:21.562Z,13.26
2022-08-23T05:48:54.965Z,13.20
2022-08-23T05:51:25.382Z,13.24
2022-08-23T05:53:54.512Z,13.30
2022-08-23T05:56:24.796Z,13.37
2022-08-23T05:58:59.657Z,13.54
2022-08-23T06:01:28.846Z,13.70
2022-08-23T06:03:57.015Z,13.86
2022-08-23T06:06:36.907Z,13.99
2022-08-23T06:09:07.755Z,14.01
2022-08-23T06:11:36.680Z,14.19
2022-08-23T06:14:07.757Z,14.27
2022-08-23T06:16:38.205Z,14.31
2022-08-23T06:19:06.706Z,14.29
2022-08-23T06:21:35.125Z,14.41
2022-08-23T06:24:03.576Z,14.63
2022-08-23T06:26:34.116Z,14.69
2022-08-23T06:29:07.516Z,14.85
2022-08-23T06:31:47.536Z,15.23
2022-08-23T06:34:19.579Z,15.82
2022-08-23T06:36:49.315Z,15.66
2022-08-23T06:39:19.064Z,15.50
2022-08-23T06:41:48.734Z,15.56
2022-08-23T06:44:17.085Z,15.66
2022-08-23T06:46:48.143Z,15.67
2022-08-23T06:49:16.817Z,15.69
2022-08-23T06:51:47.025Z,15.73
2022-08-23T06:54:16.715Z,15.84
2022-08-23T06:56:45.675Z,15.91
2022-08-23T06:59:13.925Z,16.02
2022-08-23T07:01:46.005Z,16.14
2022-08-23T07:04:19.152Z,16.19
2022-08-23T07:06:47.955Z,16.44
2022-08-23T07:09:16.712Z,16.61
2022-08-23T07:11:44.925Z,16.80
2022-08-23T07:14:14.729Z,16.87
2022-08-23T07:16:45.994Z,16.86
2022-08-23T07:19:14.919Z,16.87
2022-08-23T07:21:45.880Z,17.05
2022-08-23T07:24:18.004Z,17.14
2022-08-23T07:26:48.025Z,17.47
2022-08-23T07:29:17.615Z,17.51
2022-08-23T07:31:48.194Z,17.66
2022-08-23T07:34:16.874Z,17.67
2022-08-23T07:36:47.884Z,17.79
2022-08-23T07:39:17.274Z,17.82
2022-08-23T07:41:45.666Z,17.79
2022-08-23T07:44:16.337Z,17.74
2022-08-23T07:46:47.335Z,17.89
2022-08-23T07:49:16.765Z,18.01
2022-08-23T07:51:52.109Z,18.18
2022-08-23T07:54:22.602Z,18.37
2022-08-23T07:56:50.834Z,18.48
2022-08-23T07:59:19.016Z,18.82
2022-08-23T08:01:47.281Z,18.97
2022-08-23T08:04:15.585Z,18.79
2022-08-23T08:06:46.435Z,19.08
2022-08-23T08:09:16.645Z,19.19
2022-08-23T08:11:47.505Z,19.37
2022-08-23T08:14:16.284Z,19.53
2022-08-23T08:16:46.487Z,20.11
2022-08-23T08:19:18.973Z,20.49
2022-08-23T08:21:48.895Z,21.45
2022-08-23T08:24:19.095Z,21.72
2022-08-23T08:26:47.616Z,21.08
2022-08-23T08:29:16.214Z,19.80
2022-08-23T08:31:45.906Z,20.08
2022-08-23T08:34:14.754Z,19.79
2022-08-23T08:36:44.685Z,19.75
2022-08-23T08:39:15.063Z,19.83
2022-08-23T08:42:04.582Z,19.90
2022-08-23T08:44:39.276Z,20.01
2022-08-23T08:47:10.434Z,20.25
2022-08-23T08:49:41.883Z,20.34
2022-08-23T08:52:17.470Z,20.30
2022-08-23T08:54:48.297Z,20.47
2022-08-23T08:57:22.680Z,20.70
2022-08-23T08:59:57.674Z,20.84
2022-08-23T09:02:32.772Z,20.90
2022-08-23T09:05:02.694Z,20.89
2022-08-23T09:07:42.782Z,20.92
2022-08-23T09:10:29.315Z,21.05
2022-08-23T09:13:08.664Z,21.28
2022-08-23T09:15:41.961Z,21.27
2022-08-23T09:18:12.238Z,20.94
2022-08-23T09:20:41.895Z,21.05
2022-08-23T09:23:12.537Z,21.22
2022-08-23T09:25:41.991Z,21.17
2022-08-23T09:28:11.635Z,21.20
2022-08-23T09:30:52.970Z,21.25
2022-08-23T09:33:26.381Z,21.17
2022-08-23T09:36:08.815Z,21.28
2022-08-23T09:38:39.573Z,21.38
2022-08-23T09:41:19.404Z,21.58
2022-08-23T09:43:50.462Z,21.57
2022-08-23T09:46:27.601Z,21.59
2022-08-23T09:48:59.038Z,21.36
2022-08-23T09:51:30.752Z,21.62
2022-08-23T09:54:08.952Z,21.71
2022-08-23T09:56:40.104Z,21.74
2022-08-23T09:59:26.999Z,21.88
2022-08-23T10:01:57.004Z,21.99
2022-08-23T10:04:33.043Z,22.01
2022-08-23T10:07:02.791Z,22.00
2022-08-23T10:09:34.612Z,22.05
2022-08-23T10:12:03.663Z,22.11
2022-08-23T10:14:36.982Z,22.15
2022-08-23T10:17:11.344Z,22.23
2022-08-23T10:19:47.730Z,22.22
2022-08-23T10:22:22.913Z,22.33
2022-08-23T10:24:58.834Z,22.43
2022-08-23T10:27:52.932Z,22.37
2022-08-23T10:30:24.965Z,22.44
2022-08-23T10:33:00.455Z,22.22
2022-08-23T10:35:32.955Z,22.36
2022-08-23T10:38:26.823Z,22.58
2022-08-23T10:41:00.085Z,22.69
2022-08-23T10:43:35.807Z,22.68
2022-08-23T10:46:09.181Z,22.76
2022-08-23T10:48:40.873Z,22.56
2022-08-23T10:51:13.392Z,22.66
2022-08-23T10:53:46.962Z,22.73
2022-08-23T10:56:19.441Z,22.70
2022-08-23T10:58:50.532Z,22.78
2022-08-23T11:01:23.575Z,22.90
2022-08-23T11:04:02.793Z,22.91
2022-08-23T11:06:53.019Z,22.84
2022-08-23T11:09:55.262Z,22.91
2022-08-23T11:12:27.203Z,22.93
2022-08-23T11:15:11.702Z,23.08
2022-08-23T11:17:56.478Z,23.02
2022-08-23T11:20:57.222Z,23.19
2022-08-23T11:23:48.332Z,23.25
2022-08-23T11:26:56.312Z,23.36
2022-08-23T11:29:32.726Z,23.55
2022-08-23T11:32:04.693Z,23.49
2022-08-23T11:34:37.863Z,23.53
2022-08-23T11:37:26.643Z,23.64
2022-08-23T11:40:12.640Z,23.66
2022-08-23T11:42:50.315Z,23.60
2022-08-23T11:45:30.642Z,23.72
2022-08-23T11:48:14.504Z,23.72
2022-08-23T11:51:06.103Z,23.90
2022-08-23T11:53:48.745Z,23.87
2022-08-23T11:56:38.252Z,23.80
2022-08-23T11:59:38.544Z,23.93
2022-08-23T12:02:37.275Z,24.05
2022-08-23T12:05:20.464Z,24.36
2022-08-23T12:07:55.588Z,24.67
2022-08-23T12:10:26.426Z,24.65
2022-08-23T12:13:31.083Z,24.87
2022-08-23T12:16:11.826Z,24.67
2022-08-23T12:18:53.563Z,24.94
2022-08-23T12:21:26.482Z,25.02
2022-08-23T12:24:01.295Z,24.97
2022-08-23T12:26:46.012Z,24.88
2022-08-23T12:29:25.543Z,25.25
2022-08-23T12:31:59.373Z,25.33
2022-08-23T12:34:34.473Z,25.20
2022-08-23T12:37:11.312Z,25.39
2022-08-23T12:39:48.171Z,25.47
2022-08-23T12:42:20.083Z,25.42
2022-08-23T12:45:00.013Z,28.49
2022-08-23T12:47:28.372Z,31.94
2022-08-23T12:49:59.452Z,34.72
2022-08-23T12:52:30.303Z,36.25
2022-08-23T12:55:00.404Z,39.60
2022-08-23T12:57:33.642Z,37.31
2022-08-23T13:00:19.153Z,38.09
2022-08-23T13:02:51.804Z,41.27
2022-08-23T13:05:25.082Z,40.40
2022-08-23T13:07:53.462Z,41.99
2022-08-23T13:10:23.422Z,43.12
2022-08-23T13:12:51.671Z,43.05
2022-08-23T13:15:43.457Z,40.61
2022-08-23T13:18:11.887Z,43.71
2022-08-23T13:20:40.332Z,43.07
2022-08-23T13:23:10.527Z,43.68
2022-08-23T13:25:41.790Z,44.54
2022-08-23T13:28:28.704Z,43.79
2022-08-23T13:31:02.122Z,43.80
2022-08-23T13:33:31.136Z,42.23
2022-08-23T13:36:13.011Z,43.99
2022-08-23T13:38:43.384Z,43.48
2022-08-23T13:41:25.562Z,43.42
2022-08-23T13:43:55.070Z,40.87
2022-08-23T13:46:26.551Z,37.98
2022-08-23T13:48:59.982Z,37.06
2022-08-23T13:51:31.598Z,38.96
2022-08-23T13:54:01.964Z,40.16
2022-08-23T13:56:35.096Z,42.32
2022-08-23T13:59:05.973Z,43.30
2022-08-23T14:01:34.301Z,42.58
2022-08-23T14:04:02.572Z,40.54
2022-08-23T14:06:30.902Z,42.62
2022-08-23T14:08:59.192Z,43.08
2022-08-23T14:11:27.502Z,40.71
2022-08-23T14:13:57.372Z,41.86
2022-08-23T14:16:39.442Z,41.41
2022-08-23T14:19:55.154Z,44.55
2022-08-23T14:21:58.983Z,44.96
2022-08-23T14:24:27.653Z,44.28
2022-08-23T14:26:56.893Z,43.73
2022-08-23T14:29:29.302Z,42.51
2022-08-23T14:32:00.105Z,43.30
2022-08-23T14:34:30.712Z,41.02
2022-08-23T14:39:48.375Z,44.37
2022-08-23T14:42:19.103Z,44.77
2022-08-23T14:44:48.867Z,43.74
2022-08-23T14:47:17.582Z,43.06
2022-08-23T14:49:45.903Z,42.77
2022-08-23T14:52:15.253Z,42.16
2022-08-23T14:54:44.285Z,40.30
2022-08-23T14:57:12.912Z,42.05
2022-08-23T14:59:41.482Z,42.34
2022-08-23T15:02:13.528Z,43.16
2022-08-23T15:04:42.502Z,42.50
2022-08-23T15:07:18.355Z,40.13
2022-08-23T15:09:47.585Z,38.42
2022-08-23T15:15:05.642Z,39.88
2022-08-23T15:17:39.235Z,39.49
2022-08-23T15:20:08.472Z,37.79
2022-08-23T15:22:44.402Z,34.64
2022-08-23T15:25:14.292Z,33.29
2022-08-23T15:27:42.895Z,32.74
2022-08-23T15:30:13.040Z,30.15
2022-08-23T15:32:52.221Z,29.41
2022-08-23T15:35:32.125Z,28.67
2022-08-23T15:38:00.504Z,28.15
2022-08-23T15:40:28.930Z,27.79
2022-08-23T15:42:57.263Z,27.42
2022-08-23T15:45:25.672Z,27.17
2022-08-23T15:47:59.023Z,27.13
2022-08-23T15:50:31.272Z,26.79
2022-08-23T15:52:59.594Z,26.50
2022-08-23T15:55:31.476Z,26.34
2022-08-23T15:57:59.810Z,26.44
2022-08-23T16:00:29.570Z,26.46
2022-08-23T16:03:19.304Z,26.41
2022-08-23T16:05:50.446Z,25.83
2022-08-23T16:08:22.232Z,25.29
2022-08-23T16:10:50.606Z,25.05
2022-08-23T16:13:19.657Z,24.80
2022-08-23T16:15:48.422Z,24.71
2022-08-23T16:18:18.263Z,24.53
2022-08-23T16:20:46.745Z,24.16
2022-08-23T16:23:15.082Z,24.01
2022-08-23T16:25:44.013Z,23.97
2022-08-23T16:28:12.302Z,23.88
2022-08-23T16:30:40.730Z,23.70
2022-08-23T16:33:09.085Z,23.73
2022-08-23T16:35:38.960Z,23.80
2022-08-23T16:38:07.222Z,23.69
2022-08-23T16:40:35.522Z,23.50
2022-08-23T16:43:04.160Z,23.43
2022-08-23T16:45:32.737Z,23.44
2022-08-23T16:48:01.190Z,23.49
2022-08-23T16:50:32.872Z,23.40
2022-08-23T16:53:07.096Z,23.27
2022-08-23T16:55:35.782Z,23.22
2022-08-23T16:58:04.855Z,23.09
2022-08-23T17:00:33.392Z,22.95
2022-08-23T17:03:02.166Z,22.82
2022-08-23T17:05:30.713Z,22.79
2022-08-23T17:07:59.091Z,22.73
2022-08-23T17:10:28.890Z,22.68
2022-08-23T17:12:59.829Z,22.76
2022-08-23T17:15:31.070Z,22.72
2022-08-23T17:17:59.667Z,22.73
2022-08-23T17:20:29.862Z,22.75
2022-08-23T17:22:58.465Z,22.63
2022-08-23T17:25:28.330Z,22.62
2022-08-23T17:27:58.352Z,22.50
2022-08-23T17:30:28.710Z,22.50
2022-08-23T17:32:57.703Z,22.45
2022-08-23T17:35:33.613Z,22.38
2022-08-23T17:38:03.196Z,22.28
2022-08-23T17:40:36.392Z,22.18
2022-08-23T17:43:05.421Z,22.01
2022-08-23T17:45:35.935Z,21.96
2022-08-23T17:48:04.812Z,21.76
2022-08-23T17:50:33.376Z,21.77
2022-08-23T17:53:04.458Z,21.67
2022-08-23T17:55:35.835Z,21.55
2022-08-23T17:58:04.975Z,21.32
2022-08-23T18:00:34.005Z,21.39
2022-08-23T18:03:02.536Z,21.26
2022-08-23T18:05:31.832Z,21.24
2022-08-23T18:08:00.717Z,21.18
2022-08-23T18:10:30.261Z,21.05
2022-08-23T18:13:00.126Z,21.03
2022-08-23T18:15:31.305Z,20.94
2022-08-23T18:18:00.661Z,20.76
2022-08-23T18:20:29.625Z,20.77
2022-08-23T18:22:59.368Z,20.65
2022-08-23T18:25:28.534Z,20.47
2022-08-23T18:28:08.638Z,20.59
2022-08-23T18:30:40.941Z,20.51
2022-08-23T18:33:14.702Z,20.55
2022-08-23T18:35:43.733Z,20.42
2022-08-23T18:38:13.582Z,20.48
2022-08-23T18:40:46.502Z,20.29
2022-08-23T18:43:17.005Z,20.41
2022-08-23T18:45:47.657Z,20.12
2022-08-23T18:48:16.194Z,20.18
2022-08-23T18:50:44.812Z,20.19
2022-08-23T18:53:14.372Z,20.04
2022-08-23T18:55:43.042Z,20.07
2022-08-23T18:58:11.628Z,19.74
2022-08-23T19:00:42.112Z,19.89
2022-08-23T19:03:12.511Z,19.80
2022-08-23T19:05:42.602Z,19.63
2022-08-23T19:08:11.811Z,19.57
2022-08-23T19:10:41.141Z,19.55
2022-08-23T19:13:10.031Z,19.20
2022-08-23T19:15:40.533Z,19.33
2022-08-23T19:18:09.181Z,19.33
2022-08-23T19:20:39.502Z,19.26
2022-08-23T19:23:07.992Z,19.21
2022-08-23T19:25:38.734Z,19.15
2022-08-23T19:28:07.273Z,19.08
2022-08-23T19:30:35.934Z,19.01
2022-08-23T19:33:04.890Z,18.88
2022-08-23T19:35:33.451Z,18.92
2022-08-23T19:38:03.475Z,18.85
2022-08-23T19:40:31.944Z,18.79
2022-08-23T19:43:00.625Z,18.69
2022-08-23T19:45:32.357Z,18.72
2022-08-23T19:48:00.960Z,18.72
2022-08-23T19:50:29.662Z,18.76
2022-08-23T19:52:58.329Z,18.72
2022-08-23T19:55:28.901Z,18.71
2022-08-23T19:57:58.152Z,18.70
2022-08-23T20:00:27.135Z,18.62
2022-08-23T20:02:55.593Z,18.61
2022-08-23T20:05:24.212Z,18.51
2022-08-23T20:07:52.684Z,18.54
2022-08-23T20:10:21.662Z,18.44
2022-08-23T20:12:51.412Z,18.34
2022-08-23T20:15:19.842Z,18.31
2022-08-23T20:17:48.141Z,18.31
2022-08-23T20:20:16.582Z,18.26
2022-08-23T20:23:02.155Z,18.18
2022-08-23T20:25:30.909Z,18.13
2022-08-23T20:28:05.111Z,18.03
2022-08-23T20:30:33.692Z,18.05
2022-08-23T20:33:02.144Z,17.98
2022-08-23T20:35:30.682Z,17.93
2022-08-23T20:37:59.093Z,17.91
2022-08-23T20:40:27.553Z,17.92
2022-08-23T20:42:56.546Z,17.90
2022-08-23T20:45:26.372Z,17.86
2022-08-23T20:47:54.646Z,17.81
2022-08-23T20:50:22.956Z,17.76
2022-08-23T20:52:51.216Z,17.77
2022-08-23T20:55:19.643Z,17.69
2022-08-23T20:57:47.892Z,17.72
2022-08-23T21:00:17.370Z,17.64
2022-08-23T21:02:47.071Z,17.65
2022-08-23T21:05:15.371Z,17.58
2022-08-23T21:07:43.632Z,17.56
2022-08-23T21:10:11.922Z,17.41
2022-08-23T21:12:40.277Z,17.46
2022-08-23T21:15:11.146Z,17.42
2022-08-23T21:17:39.752Z,17.42
2022-08-23T21:20:10.347Z,17.38
2022-08-23T21:22:38.572Z,17.41
2022-08-23T21:25:07.621Z,17.31
2022-08-23T21:27:35.972Z,17.25
2022-08-23T21:30:04.965Z,17.35
2022-08-23T21:32:33.282Z,17.14
2022-08-23T21:35:02.292Z,16.95
2022-08-23T21:37:31.965Z,16.93
2022-08-23T21:40:00.316Z,17.04
2022-08-23T21:42:30.285Z,17.07
2022-08-23T21:44:58.732Z,16.96
2022-08-23T21:47:27.066Z,16.97
2022-08-23T21:49:55.465Z,16.92
2022-08-23T21:52:23.716Z,16.97
2022-08-23T21:54:53.653Z,16.75
2022-08-23T21:57:21.913Z,16.90
2022-08-23T21:59:50.226Z,16.71
2022-08-23T22:02:19.514Z,16.55
2022-08-23T22:04:48.274Z,16.60
2022-08-23T22:07:16.694Z,16.60
2022-08-23T22:09:44.963Z,16.66
2022-08-23T22:12:15.303Z,16.65
2022-08-23T22:14:43.627Z,16.55
2022-08-23T22:17:11.873Z,16.46
2022-08-23T22:19:40.153Z,16.45
2022-08-23T22:22:08.402Z,16.42
2022-08-23T22:24:36.683Z,16.45
2022-08-23T22:27:05.077Z,16.38
2022-08-23T22:29:34.863Z,16.42
2022-08-23T22:32:03.309Z,16.40
2022-08-23T22:34:31.721Z,16.36
2022-08-23T22:37:00.023Z,16.29
2022-08-23T22:39:28.343Z,16.33
2022-08-23T22:41:59.216Z,16.29
2022-08-23T22:44:28.753Z,16.35
2022-08-23T22:46:59.274Z,16.32
2022-08-23T22:49:27.594Z,16.31
2022-08-23T22:51:59.178Z,16.35
2022-08-23T22:54:27.491Z,16.26
2022-08-23T22:56:55.798Z,16.23
2022-08-23T22:59:27.674Z,16.33
2022-08-23T23:02:03.644Z,16.30
2022-08-23T23:04:33.887Z,16.16
2022-08-23T23:07:02.498Z,16.23
2022-08-23T23:09:30.964Z,16.13
2022-08-23T23:11:59.416Z,16.17
2022-08-23T23:14:27.703Z,16.16
2022-08-23T23:16:56.112Z,16.01
2022-08-23T23:19:45.915Z,15.98
2022-08-23T23:22:15.259Z,15.84
2022-08-23T23:24:43.525Z,15.81
2022-08-23T23:27:12.116Z,15.75
2022-08-23T23:29:42.294Z,15.85
2022-08-23T23:32:10.524Z,15.70
2022-08-23T23:34:40.335Z,15.79
2022-08-23T23:37:08.581Z,15.79
2022-08-23T23:39:36.817Z,15.74
2022-08-23T23:42:05.615Z,15.52
2022-08-23T23:44:33.853Z,15.67
2022-08-23T23:47:02.621Z,15.70
2022-08-23T23:49:33.174Z,15.73
2022-08-23T23:52:04.475Z,15.56
2022-08-23T23:54:34.098Z,15.60
2022-08-23T23:57:02.814Z,15.62
2022-08-23T23:59:31.136Z,15.65
